createdAt,value
2023-04-02T00:01:02.106Z,39.65
2023-04-02T00:03:44.490Z,46.13
2023-04-02T00:06:30.267Z,62.03
2023-04-02T00:09:04.716Z,49.45
2023-04-02T00:11:37.533Z,69.85
2023-04-02T00:14:16.730Z,46.67
2023-04-02T00:16:44.406Z,34.05
2023-04-02T00:19:24.504Z,48.20
2023-04-02T00:21:52.460Z,29.35
2023-04-02T00:24:22.002Z,32.15
2023-04-02T00:26:53.432Z,42.10
2023-04-02T00:29:20.716Z,48.50
2023-04-02T00:31:52.590Z,37.90
2023-04-02T00:34:27.445Z,63.83
2023-04-02T00:36:54.988Z,168.60
2023-04-02T00:39:28.549Z,43.35
2023-04-02T00:42:06.417Z,36.03
2023-04-02T00:44:37.995Z,31.17
2023-04-02T00:47:17.243Z,28.35
2023-04-02T00:49:44.300Z,18.50
2023-04-02T00:52:18.575Z,17.35
2023-04-02T00:54:50.999Z,15.98
2023-04-02T00:57:25.630Z,18.70
2023-04-02T01:00:20.128Z,30.08
2023-04-02T01:03:13.172Z,19.52
2023-04-02T01:05:42.598Z,18.50
2023-04-02T01:08:31.423Z,20.60
2023-04-02T01:11:13.909Z,17.63
2023-04-02T01:14:12.941Z,17.20
2023-04-02T01:17:04.296Z,24.45
2023-04-02T01:19:45.944Z,20.13
2023-04-02T01:22:51.145Z,19.83
2023-04-02T01:25:40.452Z,19.38
2023-04-02T01:28:10.723Z,14.07
2023-04-02T01:30:37.758Z,14.35
2023-04-02T01:33:07.274Z,12.40
2023-04-02T01:35:38.981Z,12.90
2023-04-02T01:38:40.656Z,14.37
2023-04-02T01:41:33.592Z,14.17
2023-04-02T01:44:08.257Z,14.27
2023-04-02T01:46:40.761Z,14.60
2023-04-02T01:49:26.005Z,14.73
2023-04-02T01:51:56.721Z,17.42
2023-04-02T01:54:26.000Z,23.95
2023-04-02T01:56:52.950Z,18.90
2023-04-02T01:59:22.474Z,32.47
2023-04-02T02:01:54.294Z,25.93
2023-04-02T02:04:21.040Z,13.82
2023-04-02T02:06:48.324Z,22.07
2023-04-02T02:09:23.700Z,23.53
2023-04-02T02:11:51.542Z,19.35
2023-04-02T02:14:22.134Z,21.93
2023-04-02T02:16:50.185Z,26.17
2023-04-02T02:19:35.733Z,19.17
2023-04-02T02:22:29.848Z,24.58
2023-04-02T02:24:58.803Z,20.10
2023-04-02T02:27:28.764Z,18.02
2023-04-02T02:30:17.514Z,24.60
2023-04-02T02:32:53.146Z,19.73
2023-04-02T02:35:32.287Z,20.58
2023-04-02T02:38:26.721Z,17.43
2023-04-02T02:43:26.810Z,12.67
2023-04-02T02:45:55.855Z,17.63
2023-04-02T02:48:32.133Z,16.83
2023-04-02T02:51:00.455Z,16.23
2023-04-02T02:53:31.354Z,7.23
2023-04-02T02:56:01.534Z,5.83
2023-04-02T02:58:32.458Z,8.67
2023-04-02T03:00:59.719Z,8.03
2023-04-02T03:03:29.206Z,10.00
2023-04-02T03:06:02.399Z,17.17
2023-04-02T03:08:34.798Z,10.87
2023-04-02T03:11:26.617Z,10.80
2023-04-02T03:14:00.987Z,13.18
2023-04-02T03:16:43.985Z,13.57
2023-04-02T03:19:40.297Z,15.23
2023-04-02T03:22:15.886Z,14.60
2023-04-02T03:25:30.989Z,12.20
2023-04-02T03:28:06.516Z,13.83
2023-04-02T03:30:43.097Z,13.60
2023-04-02T03:33:17.334Z,13.73
2023-04-02T03:35:57.528Z,46.58
2023-04-02T03:38:40.777Z,18.60
2023-04-02T03:41:34.281Z,16.93
2023-04-02T03:44:21.641Z,19.10
2023-04-02T03:46:59.092Z,20.33
2023-04-02T03:49:38.492Z,14.90
2023-04-02T03:52:20.171Z,19.53
2023-04-02T03:54:53.812Z,17.20
2023-04-02T03:57:34.200Z,15.75
2023-04-02T04:00:30.986Z,14.03
2023-04-02T04:03:06.164Z,21.17
2023-04-02T04:05:38.796Z,36.00
2023-04-02T04:08:14.015Z,30.40
2023-04-02T04:10:42.201Z,28.30
2023-04-02T04:13:15.183Z,20.58
2023-04-02T04:16:08.003Z,23.20
2023-04-02T04:18:47.891Z,25.40
2023-04-02T04:21:31.409Z,27.03
2023-04-02T04:24:06.043Z,24.85
2023-04-02T04:26:49.581Z,27.58
2023-04-02T04:29:54.267Z,30.30
2023-04-02T04:32:50.189Z,28.02
2023-04-02T04:35:26.949Z,25.20
2023-04-02T04:38:03.927Z,39.60
2023-04-02T04:40:35.001Z,44.87
2023-04-02T04:43:07.033Z,49.93
2023-04-02T04:45:56.319Z,41.97
2023-04-02T04:48:27.526Z,57.60
2023-04-02T04:50:59.487Z,46.33
2023-04-02T04:53:28.543Z,37.43
2023-04-02T04:56:06.059Z,35.72
2023-04-02T04:58:49.081Z,34.78
2023-04-02T05:01:22.801Z,37.33
2023-04-02T05:04:12.930Z,44.30
2023-04-02T05:06:44.922Z,37.20
2023-04-02T05:09:36.664Z,33.05
2023-04-02T05:12:32.620Z,45.42
2023-04-02T05:15:26.609Z,48.65
2023-04-02T05:18:16.174Z,51.97
2023-04-02T05:21:00.733Z,91.90
2023-04-02T05:23:30.687Z,40.28
2023-04-02T05:26:09.833Z,42.42
2023-04-02T05:28:48.569Z,40.63
2023-04-02T05:31:36.353Z,51.63
2023-04-02T05:34:03.401Z,51.95
2023-04-02T05:36:31.443Z,34.00
2023-04-02T05:38:59.866Z,31.00
2023-04-02T05:41:29.029Z,38.25
2023-04-02T05:44:05.735Z,36.17
2023-04-02T05:46:37.996Z,44.42
2023-04-02T05:49:10.622Z,65.75
2023-04-02T05:51:43.702Z,70.85
2023-04-02T05:54:23.455Z,52.58
2023-04-02T05:56:56.384Z,56.67
2023-04-02T05:59:37.808Z,53.13
2023-04-02T06:02:22.379Z,47.67
2023-04-02T06:05:07.436Z,54.75
2023-04-02T06:08:29.476Z,58.03
2023-04-02T06:11:01.761Z,43.67
2023-04-02T06:13:28.939Z,55.72
2023-04-02T06:15:56.310Z,40.90
2023-04-02T06:18:30.360Z,47.22
2023-04-02T06:20:58.552Z,60.47
2023-04-02T06:23:49.679Z,45.42
2023-04-02T06:26:51.564Z,32.88
2023-04-02T06:29:26.901Z,40.28
2023-04-02T06:32:00.379Z,49.38
2023-04-02T06:34:29.393Z,43.65
2023-04-02T06:37:04.049Z,42.05
2023-04-02T06:39:31.273Z,52.50
2023-04-02T06:42:13.609Z,61.08
2023-04-02T06:44:41.095Z,67.32
2023-04-02T06:47:37.470Z,65.38
2023-04-02T06:50:33.630Z,55.75
2023-04-02T06:53:06.348Z,57.58
2023-04-02T06:55:44.337Z,55.78
2023-04-02T06:58:11.111Z,45.28
2023-04-02T07:00:46.645Z,69.25
2023-04-02T07:03:30.178Z,23.83
2023-04-02T07:05:58.382Z,18.15
2023-04-02T07:08:25.266Z,25.95
2023-04-02T07:10:52.371Z,27.00
2023-04-02T07:15:54.020Z,18.80
2023-04-02T07:18:29.141Z,11.25
2023-04-02T07:20:56.775Z,19.30
2023-04-02T07:23:23.772Z,11.90
2023-04-02T07:25:52.087Z,13.82
2023-04-02T07:28:21.391Z,9.48
2023-04-02T07:30:49.239Z,11.70
2023-04-02T07:33:18.999Z,15.57
2023-04-02T07:35:46.272Z,13.45
2023-04-02T07:38:12.980Z,13.00
2023-04-02T07:40:39.975Z,14.13
2023-04-02T07:43:07.467Z,12.82
2023-04-02T07:45:34.786Z,12.18
2023-04-02T07:48:10.592Z,18.15
2023-04-02T07:50:37.312Z,18.48
2023-04-02T07:53:04.461Z,18.05
2023-04-02T07:55:31.480Z,14.93
2023-04-02T07:57:59.783Z,15.15
2023-04-02T08:00:28.904Z,23.05
2023-04-02T08:02:56.425Z,30.30
2023-04-02T08:05:23.360Z,24.65
2023-04-02T08:07:54.882Z,18.23
2023-04-02T08:10:21.811Z,18.38
2023-04-02T08:12:49.589Z,22.20
2023-04-02T08:15:17.259Z,21.88
2023-04-02T08:17:44.561Z,25.63
2023-04-02T08:20:20.639Z,26.92
2023-04-02T08:22:48.449Z,20.83
2023-04-02T08:25:15.505Z,21.73
2023-04-02T08:27:42.289Z,16.83
2023-04-02T08:30:12.620Z,17.25
2023-04-02T08:32:41.230Z,16.52
2023-04-02T08:35:10.138Z,19.63
2023-04-02T08:37:37.359Z,18.25
2023-04-02T08:40:07.229Z,7.32
2023-04-02T08:42:34.003Z,8.15
2023-04-02T08:45:20.864Z,20.38
2023-04-02T08:47:55.527Z,6.72
2023-04-02T08:50:25.045Z,4.90
2023-04-02T08:52:52.297Z,6.68
2023-04-02T08:55:29.939Z,5.18
2023-04-02T08:58:15.422Z,4.93
2023-04-02T09:00:47.157Z,3.65
2023-04-02T09:03:21.440Z,6.78
2023-04-02T09:05:50.974Z,2.38
2023-04-02T09:08:20.612Z,1.92
2023-04-02T09:11:06.057Z,0.98
2023-04-02T09:13:37.741Z,2.92
2023-04-02T09:16:04.423Z,0.52
2023-04-02T09:18:34.228Z,2.47
2023-04-02T09:21:20.993Z,0.85
2023-04-02T09:23:48.818Z,2.72
2023-04-02T09:26:30.700Z,1.85
2023-04-02T09:29:12.827Z,1.88
2023-04-02T09:31:58.525Z,0.30
2023-04-02T09:34:30.820Z,1.02
2023-04-02T09:37:07.368Z,0.50
2023-04-02T09:39:35.635Z,3.70
2023-04-02T09:42:08.523Z,1.20
2023-04-02T09:44:35.678Z,0.95
2023-04-02T09:47:05.863Z,0.82
2023-04-02T09:49:35.741Z,0.80
2023-04-02T09:52:09.097Z,0.68
2023-04-02T09:54:41.809Z,1.10
2023-04-02T09:57:27.193Z,0.45
2023-04-02T10:03:32.910Z,0.35
2023-04-02T10:06:12.130Z,1.05
2023-04-02T10:08:42.481Z,0.80
2023-04-02T10:11:14.183Z,2.30
2023-04-02T10:13:57.466Z,0.55
2023-04-02T10:16:39.149Z,3.78
2023-04-02T10:19:15.757Z,1.60
2023-04-02T10:21:45.815Z,2.30
2023-04-02T10:24:15.984Z,1.63
2023-04-02T10:26:59.158Z,3.92
2023-04-02T10:29:49.168Z,3.55
2023-04-02T10:32:25.679Z,2.15
2023-04-02T10:35:03.666Z,0.98
2023-04-02T10:37:46.149Z,1.10
2023-04-02T10:40:24.840Z,0.52
2023-04-02T10:43:48.724Z,13.18
2023-04-02T10:46:57.645Z,7.70
2023-04-02T10:49:36.233Z,0.65
2023-04-02T10:52:17.079Z,6.70
2023-04-02T10:54:47.055Z,0.30
2023-04-02T10:57:22.412Z,2.42
2023-04-02T11:00:11.413Z,1.60
2023-04-02T11:02:38.184Z,0.77
2023-04-02T11:05:31.714Z,1.55
2023-04-02T11:08:27.658Z,1.30
2023-04-02T11:10:54.272Z,0.57
2023-04-02T11:13:36.180Z,0.98
2023-04-02T11:16:03.871Z,0.82
2023-04-02T11:18:36.070Z,0.43
2023-04-02T11:21:57.948Z,2.92
2023-04-02T11:24:46.084Z,2.05
2023-04-02T11:27:14.754Z,3.60
2023-04-02T11:29:52.568Z,2.53
2023-04-02T11:32:24.139Z,4.10
2023-04-02T11:35:06.526Z,0.45
2023-04-02T11:37:35.795Z,2.35
2023-04-02T11:40:11.857Z,2.72
2023-04-02T11:42:45.051Z,1.98
2023-04-02T11:45:23.770Z,1.48
2023-04-02T11:48:03.932Z,3.67
2023-04-02T11:50:32.102Z,2.45
2023-04-02T11:53:21.678Z,1.33
2023-04-02T11:55:58.704Z,4.15
2023-04-02T11:58:43.764Z,3.95
2023-04-02T12:01:30.265Z,2.95
2023-04-02T12:04:34.570Z,1.10
2023-04-02T12:07:20.649Z,3.92
2023-04-02T12:09:52.526Z,3.63
2023-04-02T12:12:32.060Z,2.97
2023-04-02T12:15:00.599Z,1.13
2023-04-02T12:17:38.966Z,2.67
2023-04-02T12:20:09.672Z,3.03
2023-04-02T12:22:41.234Z,3.97
2023-04-02T12:25:32.758Z,4.13
2023-04-02T12:28:18.764Z,2.05
2023-04-02T12:30:51.168Z,2.15
2023-04-02T12:33:37.392Z,4.00
2023-04-02T12:38:43.837Z,4.32
2023-04-02T12:41:26.527Z,3.63
2023-04-02T12:44:18.100Z,1.17
2023-04-02T12:46:46.530Z,1.80
2023-04-02T12:49:28.458Z,3.67
2023-04-02T12:51:56.432Z,1.60
2023-04-02T12:54:24.026Z,0.82
2023-04-02T12:56:51.413Z,0.40
2023-04-02T12:59:31.357Z,3.60
2023-04-02T13:02:00.733Z,2.50
2023-04-02T13:04:27.834Z,1.15
2023-04-02T13:06:55.910Z,4.50
2023-04-02T13:09:34.339Z,3.38
2023-04-02T13:12:02.482Z,4.15
2023-04-02T13:14:30.418Z,2.88
2023-04-02T13:16:57.320Z,2.15
2023-04-02T13:19:27.478Z,3.25
2023-04-02T13:21:55.862Z,2.53
2023-04-02T13:24:31.587Z,0.43
2023-04-02T13:27:03.077Z,1.40
2023-04-02T13:29:35.106Z,0.90
2023-04-02T13:32:09.629Z,1.20
2023-04-02T13:34:36.375Z,1.50
2023-04-02T13:37:03.250Z,2.28
2023-04-02T13:39:30.559Z,0.77
2023-04-02T13:41:59.792Z,1.80
2023-04-02T13:44:32.032Z,2.72
2023-04-02T13:46:59.909Z,1.95
2023-04-02T13:49:27.641Z,0.90
2023-04-02T13:52:00.019Z,1.77
2023-04-02T13:54:38.729Z,1.05
2023-04-02T13:57:06.335Z,1.95
2023-04-02T13:59:33.129Z,2.00
2023-04-02T14:02:09.204Z,1.38
2023-04-02T14:04:44.837Z,5.15
2023-04-02T14:07:26.104Z,2.65
2023-04-02T14:09:53.959Z,2.90
2023-04-02T14:12:35.833Z,3.55
2023-04-02T14:15:05.421Z,1.98
2023-04-02T14:17:53.559Z,3.20
2023-04-02T14:20:35.174Z,2.10
2023-04-02T14:23:20.514Z,3.38
2023-04-02T14:28:26.959Z,1.52
2023-04-02T14:31:34.273Z,2.05
2023-04-02T14:34:38.444Z,3.45
2023-04-02T14:37:30.990Z,3.03
2023-04-02T14:40:36.966Z,2.63
2023-04-02T14:43:27.657Z,2.50
2023-04-02T14:46:01.732Z,6.93
2023-04-02T14:48:50.430Z,6.43
2023-04-02T14:51:36.374Z,2.03
2023-04-02T14:54:13.545Z,7.30
2023-04-02T14:57:11.574Z,1.67
2023-04-02T14:59:59.150Z,2.20
2023-04-02T15:02:45.070Z,1.90
2023-04-02T15:05:21.358Z,3.17
2023-04-02T15:08:00.942Z,1.17
2023-04-02T15:10:45.881Z,2.60
2023-04-02T15:13:20.099Z,2.55
2023-04-02T15:15:52.622Z,3.23
2023-04-02T15:18:19.356Z,5.40
2023-04-02T15:20:54.753Z,2.80
2023-04-02T15:23:51.720Z,3.95
2023-04-02T15:26:33.959Z,5.10
2023-04-02T15:29:28.410Z,5.43
2023-04-02T15:32:06.040Z,6.07
2023-04-02T15:34:51.716Z,4.80
2023-04-02T15:37:31.231Z,3.63
2023-04-02T15:40:35.640Z,12.05
2023-04-02T15:43:38.255Z,12.25
2023-04-02T15:46:22.337Z,6.47
2023-04-02T15:49:12.945Z,5.65
2023-04-02T15:51:59.542Z,6.80
2023-04-02T15:54:41.259Z,4.95
2023-04-02T15:57:26.867Z,9.10
2023-04-02T16:00:28.011Z,7.70
2023-04-02T16:03:27.169Z,4.85
2023-04-02T16:06:17.178Z,6.55
2023-04-02T16:09:18.103Z,8.25
2023-04-02T16:11:47.080Z,11.80
2023-04-02T16:14:22.741Z,6.90
2023-04-02T16:16:51.921Z,6.82
2023-04-02T16:19:32.466Z,10.57
2023-04-02T16:22:26.130Z,9.63
2023-04-02T16:25:07.752Z,9.35
2023-04-02T16:27:51.464Z,10.27
2023-04-02T16:30:37.269Z,11.15
2023-04-02T16:33:16.226Z,17.08
2023-04-02T16:36:21.494Z,11.10
2023-04-02T16:38:59.346Z,14.98
2023-04-02T16:41:36.236Z,15.18
2023-04-02T16:44:31.334Z,12.93
2023-04-02T16:47:14.234Z,15.40
2023-04-02T16:49:52.642Z,20.05
2023-04-02T16:52:41.101Z,17.77
2023-04-02T16:55:34.882Z,19.48
2023-04-02T16:58:21.996Z,28.35
2023-04-02T17:00:56.214Z,24.17
2023-04-02T17:03:56.382Z,62.72
2023-04-02T17:06:42.425Z,28.20
2023-04-02T17:09:16.429Z,24.60
2023-04-02T17:11:43.149Z,32.25
2023-04-02T17:14:39.133Z,39.72
2023-04-02T17:17:05.972Z,38.45
2023-04-02T17:19:44.788Z,33.45
2023-04-02T17:22:20.806Z,39.55
2023-04-02T17:24:57.809Z,37.05
2023-04-02T17:27:30.306Z,31.60
2023-04-02T17:30:04.500Z,30.92
2023-04-02T17:32:33.732Z,31.23
2023-04-02T17:35:18.100Z,31.27
2023-04-02T17:38:16.923Z,23.45
2023-04-02T17:40:54.912Z,29.60
2023-04-02T17:43:46.175Z,28.70
2023-04-02T17:46:34.733Z,57.72
2023-04-02T17:49:44.502Z,34.22
2023-04-02T17:52:34.894Z,35.60
2023-04-02T17:55:16.211Z,31.42
2023-04-02T17:58:01.659Z,28.88
2023-04-02T18:03:52.933Z,40.13
2023-04-02T18:06:31.045Z,42.50
2023-04-02T18:09:14.741Z,78.22
2023-04-02T18:11:56.872Z,50.22
2023-04-02T18:14:38.205Z,90.40
2023-04-02T18:17:22.796Z,81.53
2023-04-02T18:19:49.455Z,76.15
2023-04-02T18:22:53.614Z,61.15
2023-04-02T18:25:47.472Z,64.13
2023-04-02T18:28:36.312Z,50.05
2023-04-02T18:31:28.914Z,55.42
2023-04-02T18:34:07.763Z,60.05
2023-04-02T18:36:46.473Z,45.38
2023-04-02T18:39:46.812Z,38.30
2023-04-02T18:42:38.661Z,38.30
2023-04-02T18:45:14.612Z,39.70
2023-04-02T18:47:53.906Z,32.13
2023-04-02T18:50:39.387Z,32.80
2023-04-02T18:53:17.825Z,43.75
2023-04-02T18:56:04.446Z,46.65
2023-04-02T18:58:49.454Z,54.05
2023-04-02T19:01:24.005Z,51.45
2023-04-02T19:04:01.999Z,19.40
2023-04-02T19:06:43.967Z,15.13
2023-04-02T19:09:20.749Z,42.58
2023-04-02T19:11:49.552Z,42.58
2023-04-02T19:14:18.423Z,43.38
2023-04-02T19:17:04.465Z,74.47
2023-04-02T19:19:45.330Z,54.20
2023-04-02T19:22:29.585Z,69.47
2023-04-02T19:25:12.292Z,60.65
2023-04-02T19:27:53.803Z,46.95
2023-04-02T19:30:26.611Z,44.47
2023-04-02T19:32:56.319Z,57.92
2023-04-02T19:35:37.391Z,40.35
2023-04-02T19:38:10.010Z,38.50
2023-04-02T19:40:51.664Z,34.80
2023-04-02T19:43:18.418Z,25.98
2023-04-02T19:45:48.434Z,39.97
2023-04-02T19:48:23.686Z,41.92
2023-04-02T19:50:50.599Z,45.80
2023-04-02T19:53:18.547Z,35.22
2023-04-02T19:55:46.208Z,22.45
2023-04-02T19:58:35.071Z,17.60
2023-04-02T20:01:02.756Z,19.42
2023-04-02T20:03:30.924Z,28.73
2023-04-02T20:05:59.688Z,34.55
2023-04-02T20:08:27.771Z,41.50
2023-04-02T20:10:55.795Z,35.55
2023-04-02T20:13:22.681Z,41.33
2023-04-02T20:15:51.851Z,21.50
2023-04-02T20:18:22.718Z,13.60
2023-04-02T20:20:49.928Z,9.98
2023-04-02T20:23:17.906Z,12.02
2023-04-02T20:25:46.882Z,11.90
2023-04-02T20:28:14.215Z,13.30
2023-04-02T20:30:41.377Z,18.88
2023-04-02T20:33:08.507Z,19.25
2023-04-02T20:35:35.749Z,17.40
2023-04-02T20:38:06.464Z,34.35
2023-04-02T20:40:34.185Z,23.02
2023-04-02T20:43:01.426Z,58.40
2023-04-02T20:45:29.383Z,18.48
2023-04-02T20:47:56.797Z,14.55
2023-04-02T20:50:23.884Z,13.43
2023-04-02T20:52:51.762Z,21.77
2023-04-02T20:55:18.879Z,22.85
2023-04-02T20:57:45.715Z,42.90
2023-04-02T21:00:13.647Z,43.53
2023-04-02T21:02:40.480Z,37.25
2023-04-02T21:05:07.874Z,42.83
2023-04-02T21:07:34.610Z,24.48
2023-04-02T21:10:01.792Z,22.20
2023-04-02T21:12:31.597Z,10.25
2023-04-02T21:15:01.753Z,9.93
2023-04-02T21:17:31.148Z,15.18
2023-04-02T21:19:57.965Z,8.75
2023-04-02T21:22:24.717Z,10.82
2023-04-02T21:24:51.460Z,18.65
2023-04-02T21:27:18.164Z,27.02
2023-04-02T21:29:44.899Z,24.73
2023-04-02T21:32:20.686Z,18.23
2023-04-02T21:34:48.276Z,13.88
2023-04-02T21:37:14.993Z,16.88
2023-04-02T21:39:41.721Z,21.55
2023-04-02T21:42:08.606Z,15.85
2023-04-02T21:44:35.282Z,11.32
2023-04-02T21:47:02.007Z,9.85
2023-04-02T21:49:29.816Z,8.02
2023-04-02T21:51:56.703Z,9.73
2023-04-02T21:54:23.799Z,5.72
2023-04-02T21:56:50.503Z,9.45
2023-04-02T21:59:18.251Z,8.07
2023-04-02T22:01:50.543Z,9.68
2023-04-02T22:04:20.864Z,12.20
2023-04-02T22:06:48.127Z,12.45
2023-04-02T22:09:21.656Z,13.40
2023-04-02T22:11:51.044Z,15.75
2023-04-02T22:14:17.931Z,15.18
2023-04-02T22:16:44.774Z,15.70
2023-04-02T22:19:14.461Z,13.85
2023-04-02T22:21:41.938Z,12.98
2023-04-02T22:24:12.204Z,12.43
2023-04-02T22:26:40.499Z,13.02
2023-04-02T22:29:07.965Z,20.02
2023-04-02T22:31:35.324Z,9.50
2023-04-02T22:34:03.611Z,11.60
2023-04-02T22:36:30.861Z,16.55
2023-04-02T22:38:59.147Z,9.45
2023-04-02T22:41:28.865Z,8.52
2023-04-02T22:43:56.988Z,6.32
2023-04-02T22:46:25.007Z,6.75
2023-04-02T22:48:55.729Z,8.00
2023-04-02T22:51:24.439Z,7.57
2023-04-02T22:53:56.237Z,7.88
2023-04-02T22:56:31.917Z,6.32
2023-04-02T22:58:59.361Z,5.88
2023-04-02T23:01:32.625Z,6.32
2023-04-02T23:03:59.747Z,20.15
2023-04-02T23:06:27.301Z,20.33
2023-04-02T23:08:54.189Z,19.27
2023-04-02T23:11:23.658Z,17.17
2023-04-02T23:13:52.415Z,14.18
2023-04-02T23:16:23.177Z,18.88
2023-04-02T23:18:50.324Z,13.65
2023-04-02T23:21:18.185Z,14.82
2023-04-02T23:23:46.164Z,10.80
2023-04-02T23:26:19.765Z,12.75
2023-04-02T23:28:46.524Z,8.60
2023-04-02T23:31:16.433Z,10.63
2023-04-02T23:33:43.923Z,15.00
2023-04-02T23:36:14.880Z,9.30
2023-04-02T23:38:41.597Z,8.48
2023-04-02T23:41:08.259Z,7.60
2023-04-02T23:43:34.999Z,10.52
2023-04-02T23:46:02.139Z,11.52
2023-04-02T23:48:28.879Z,11.63
2023-04-02T23:50:56.260Z,16.95
2023-04-02T23:53:23.505Z,13.18
2023-04-02T23:55:50.267Z,11.50
2023-04-02T23:58:17.046Z,11.30
